Columbia Regional Airport
KCOU : rendu visible

Aérodrome :











RETROUVEZ-NOUS SUR...

 
LOGIN :

S'inscrire | Disclaimer

   EN    FR    IT 

 









Légende :    VFR   VFR Marginal   IFR   IFR Intensif   IFR Très Intensif
Visi : 
Plafond : 
>= 8 km
>= 3000ft
5 à 8 km
1000 à 3000 ft
1500m à 5 km
500 à 1000 ft
800 à 1500m
200 à 500 ft
< 800m
< 200 ft
Symboles :   Orages  Brouillard  Fortes neiges  Fortes précipitations  Vent > 20 kt






- Altitude de l'aérodrome : 889 ft
- Code IATA : COU


KCOU - Columbia Regional

DERNIER METAR :
  • 241454Z 07012KT 10SM -RA BKN006 OVC019 07/06 A2970 RMK AO2 SLP059 P0005 60028 T00670056 58010

METARs EXPIRÉS :
  • 241423Z 06011KT 9SM -RA BKN006 BKN020 OVC025 07/06 A2972 RMK AO2 P0003 T00670056
  • 241354Z 05010KT 3SM RA BR OVC004 07/06 A2972 RMK AO2 RAB1256 SLP065 P0022 T00670056
  • 241307Z 07004KT 2SM +RA BR OVC004 07/07 A2974 RMK AO2 RAB1256 P0001 T00670067
  • 241254Z 10003KT 10SM OVC004 07/07 A2975 RMK AO2 SLP074 P0001 T00670067

TAF KCOU
Valide du 24 à 13h jusqu'au 25 à 12h UTC


241327Z 2413/2512 08006KT P6SM VCSH OVC004
TEMPO 2413/2415 2SM SHRA BR
FM241800 06010G17KT 2SM -SHRA BR OVC006
FM242300 02011G17KT 5SM -SHRA BR OVC008
FM250500 34010KT 3SM BR VCSH OVC004



MET'MAP, la Météo Aéronautique d'un coup d'oeil ! - Copyright ORBIFLY Décembre 2007 - Disclaimer

ORBIFLY MET'MAP TEAM :

Programmation & Développement : Alexandra Zaïnal
Sur une idée originale de : Baudouin d'Aumeries
Assistance à la programmation : Marc-Olivier Méhu
Soutien technique & logistique : Manuel Goepfert

Contact : metmap@orbifly.com




SOURCES & CREDITS :

   NOAA       Earth
Advisory